Winslow, Arkansas
Current Conditions -  °F | °C
As of 5:53 AM on Monday 24 Nov 2014 (Local Time) from KFYV Reporting Station
Clear Clear  
Wind Chill: 31°   Ceiling: Unl
Heat Index: 38°   Visibility: 10mi
Dew Point: 32°   Wind: 9mph
Humidity: 79%   Direction: 250°WSW
Pressure: 29.79"   Gusts: 18mph
Location:  35.8°N, 94.13°W
Report Text: KFYV 241153Z 25008G16KT 10SM CLR 03/00 A2979 RMK AO2 SLP088 60001 70009 T00330000 10050 20028 51031
Loading
Personal Weather Stations






























Interactive Weather Map New forecast layout! Learn more

10-Day Weather Forecast

Advertisements
Track Severe Weather on mobile